createdAt,value
2023-03-07T00:04:21.618Z,52.43
2023-03-07T00:09:23.110Z,52.85
2023-03-07T00:14:24.682Z,52.56
2023-03-07T00:19:26.246Z,52.23
2023-03-07T00:24:27.752Z,51.58
2023-03-07T00:29:29.295Z,52.13
2023-03-07T00:34:30.796Z,52.11
2023-03-07T00:39:32.320Z,52.95
2023-03-07T00:44:34.353Z,53.04
2023-03-07T00:49:35.887Z,52.74
2023-03-07T00:54:37.815Z,52.67
2023-03-07T00:59:39.322Z,53.30
2023-03-07T01:04:40.848Z,53.13
2023-03-07T01:09:42.416Z,52.87
2023-03-07T01:14:43.954Z,52.80
2023-03-07T01:19:45.537Z,52.65
2023-03-07T01:24:48.211Z,52.69
2023-03-07T01:29:49.952Z,53.35
2023-03-07T01:34:52.017Z,53.20
2023-03-07T01:39:54.359Z,53.59
2023-03-07T01:45:35.216Z,52.90
2023-03-07T01:50:39.283Z,53.03
2023-03-07T01:55:40.844Z,52.88
2023-03-07T02:00:47.381Z,52.94
2023-03-07T02:05:55.689Z,53.14
2023-03-07T02:10:57.206Z,52.96
2023-03-07T02:16:01.142Z,53.00
2023-03-07T02:21:09.123Z,53.65
2023-03-07T02:26:21.915Z,53.64
2023-03-07T02:31:24.695Z,53.60
2023-03-07T02:36:32.390Z,53.51
2023-03-07T02:41:55.168Z,54.17
2023-03-07T02:47:08.725Z,54.66
2023-03-07T02:52:10.572Z,54.92
2023-03-07T02:57:12.130Z,55.08
2023-03-07T03:02:14.119Z,54.26
2023-03-07T03:07:15.648Z,54.28
2023-03-07T03:12:17.217Z,54.65
2023-03-07T03:17:20.665Z,54.76
2023-03-07T03:22:22.207Z,54.36
2023-03-07T03:27:25.324Z,54.00
2023-03-07T03:32:27.189Z,53.78
2023-03-07T03:37:28.716Z,54.51
2023-03-07T03:42:30.466Z,54.31
2023-03-07T03:47:31.939Z,53.70
2023-03-07T03:52:35.699Z,53.58
2023-03-07T03:57:37.710Z,53.52
2023-03-07T04:02:40.615Z,52.96
2023-03-07T04:07:46.729Z,52.90
2023-03-07T04:12:48.541Z,52.50
2023-03-07T04:17:50.136Z,52.27
2023-03-07T04:22:52.707Z,52.41
2023-03-07T04:27:54.263Z,52.18
2023-03-07T04:32:55.949Z,51.89
2023-03-07T04:37:57.731Z,51.31
2023-03-07T04:42:59.983Z,51.16
2023-03-07T04:48:01.712Z,51.27
2023-03-07T04:53:04.198Z,51.78
2023-03-07T04:58:05.728Z,52.22
2023-03-07T05:03:08.828Z,52.22
2023-03-07T05:08:10.456Z,52.17
2023-03-07T05:13:12.212Z,51.65
2023-03-07T05:18:13.870Z,51.58
2023-03-07T05:23:15.548Z,51.19
2023-03-07T05:28:17.413Z,50.92
2023-03-07T05:33:19.120Z,51.46
2023-03-07T05:38:21.183Z,51.84
2023-03-07T05:43:23.194Z,50.95
2023-03-07T05:48:26.351Z,50.70
2023-03-07T05:53:27.868Z,50.98
2023-03-07T05:58:30.148Z,50.50
2023-03-07T06:03:32.048Z,51.02
2023-03-07T06:08:33.696Z,50.48
2023-03-07T06:13:35.372Z,49.61
2023-03-07T06:18:36.890Z,48.85
2023-03-07T06:23:38.469Z,49.43
2023-03-07T06:28:45.327Z,49.22
2023-03-07T06:33:48.557Z,48.92
2023-03-07T06:38:52.249Z,48.27
2023-03-07T06:43:54.658Z,48.36
2023-03-07T06:49:01.360Z,47.84
2023-03-07T06:54:03.360Z,48.10
2023-03-07T06:59:04.908Z,47.98
2023-03-07T07:04:06.474Z,47.93
2023-03-07T07:09:08.122Z,47.49
2023-03-07T07:14:12.962Z,47.52
2023-03-07T07:19:16.000Z,47.08
2023-03-07T07:24:17.982Z,47.06
2023-03-07T07:29:19.561Z,48.03
2023-03-07T07:34:22.570Z,48.45
2023-03-07T07:39:24.214Z,48.16
2023-03-07T07:44:29.650Z,47.31
2023-03-07T07:49:33.498Z,47.35
2023-03-07T07:54:35.287Z,46.58
2023-03-07T07:59:36.947Z,46.38
2023-03-07T08:04:40.777Z,45.49
2023-03-07T08:09:42.270Z,45.44
2023-03-07T08:14:43.828Z,44.65
2023-03-07T08:19:45.365Z,44.23
2023-03-07T08:24:46.960Z,43.47
2023-03-07T08:29:49.379Z,44.10
2023-03-07T08:34:50.978Z,43.33
2023-03-07T08:39:52.447Z,42.98
2023-03-07T08:44:53.938Z,43.30
2023-03-07T08:49:55.438Z,41.93
2023-03-07T08:54:56.959Z,42.30
2023-03-07T08:59:58.438Z,42.17
2023-03-07T09:05:00.048Z,41.98
2023-03-07T09:10:01.801Z,42.76
2023-03-07T09:15:03.629Z,41.97
2023-03-07T09:20:06.493Z,41.84
2023-03-07T09:25:08.438Z,41.23
2023-03-07T09:30:12.333Z,41.11
2023-03-07T09:35:13.803Z,40.33
2023-03-07T09:40:25.059Z,39.78
2023-03-07T09:45:39.438Z,39.29
2023-03-07T09:50:55.854Z,39.09
2023-03-07T09:55:58.928Z,39.37
2023-03-07T10:01:00.420Z,39.34
2023-03-07T10:06:14.919Z,39.88
2023-03-07T10:11:46.255Z,38.95
2023-03-07T10:17:03.381Z,38.22
2023-03-07T10:22:20.303Z,37.90
2023-03-07T10:27:26.436Z,38.75
2023-03-07T10:32:47.069Z,37.75
2023-03-07T10:38:24.045Z,36.38
2023-03-07T10:43:29.867Z,34.57
2023-03-07T10:48:31.603Z,32.31
2023-03-07T10:53:36.531Z,30.12
2023-03-07T10:58:38.144Z,29.20
2023-03-07T11:03:52.751Z,31.03
2023-03-07T11:08:55.599Z,32.26
2023-03-07T11:14:14.100Z,32.42
2023-03-07T11:19:35.249Z,31.95
2023-03-07T11:24:39.154Z,32.82
2023-03-07T11:29:40.775Z,32.25
2023-03-07T11:34:53.306Z,32.17
2023-03-07T11:40:19.627Z,32.92
2023-03-07T11:45:29.993Z,33.63
2023-03-07T11:50:32.731Z,33.33
2023-03-07T11:55:43.464Z,32.03
2023-03-07T12:01:12.065Z,32.43
2023-03-07T12:06:51.999Z,33.57
2023-03-07T12:12:02.516Z,34.49
2023-03-07T12:17:27.321Z,33.13
2023-03-07T12:23:27.893Z,33.60
2023-03-07T12:28:51.898Z,33.77
2023-03-07T12:33:59.169Z,33.46
2023-03-07T12:39:03.628Z,33.72
2023-03-07T12:44:11.879Z,33.03
2023-03-07T12:49:16.521Z,33.49
2023-03-07T12:54:32.884Z,32.16
2023-03-07T12:59:35.734Z,32.73
2023-03-07T13:04:39.607Z,33.09
2023-03-07T13:09:44.103Z,33.05
2023-03-07T13:14:46.535Z,33.42
2023-03-07T13:19:53.761Z,33.58
2023-03-07T13:24:56.970Z,33.46
2023-03-07T13:30:07.527Z,32.97
2023-03-07T13:35:09.747Z,32.25
2023-03-07T13:40:29.565Z,31.77
2023-03-07T13:45:40.096Z,30.94
2023-03-07T13:50:44.782Z,31.91
2023-03-07T13:55:49.202Z,32.73
2023-03-07T14:00:54.635Z,32.50
2023-03-07T14:06:03.754Z,33.10
2023-03-07T14:11:13.887Z,33.16
2023-03-07T14:16:30.942Z,32.90
2023-03-07T14:21:41.261Z,33.21
2023-03-07T14:26:50.875Z,33.70
2023-03-07T14:31:55.140Z,33.96
2023-03-07T14:37:02.527Z,34.06
2023-03-07T14:42:20.265Z,33.62
2023-03-07T14:47:58.971Z,34.93
2023-03-07T14:53:05.478Z,35.06
2023-03-07T14:58:07.359Z,35.39
2023-03-07T15:03:12.961Z,35.13
2023-03-07T15:08:18.810Z,36.05
2023-03-07T15:13:30.035Z,36.41
2023-03-07T15:18:42.228Z,36.73
2023-03-07T15:23:51.765Z,36.92
2023-03-07T15:29:00.989Z,37.36
2023-03-07T15:34:22.715Z,38.23
2023-03-07T15:39:30.711Z,38.50
2023-03-07T15:44:33.132Z,38.58
2023-03-07T15:49:50.189Z,38.64
2023-03-07T15:54:54.551Z,38.70
2023-03-07T16:00:06.658Z,39.04
2023-03-07T16:05:20.101Z,38.81
2023-03-07T16:10:26.534Z,38.91
2023-03-07T16:15:28.583Z,39.48
2023-03-07T16:20:30.136Z,40.28
2023-03-07T16:25:31.674Z,39.99
2023-03-07T16:30:33.233Z,40.04
2023-03-07T16:35:34.752Z,40.26
2023-03-07T16:40:40.710Z,40.11
2023-03-07T16:45:42.285Z,40.94
2023-03-07T16:50:43.810Z,40.63
2023-03-07T16:55:46.119Z,41.22
2023-03-07T17:00:47.752Z,41.33
2023-03-07T17:05:49.266Z,41.33
2023-03-07T17:10:50.813Z,40.93
2023-03-07T17:15:52.404Z,41.33
2023-03-07T17:20:53.947Z,41.25
2023-03-07T17:25:55.520Z,41.95
2023-03-07T17:30:57.070Z,42.88
2023-03-07T17:35:58.652Z,42.99
2023-03-07T17:41:00.170Z,42.56
2023-03-07T17:46:01.777Z,43.03
2023-03-07T17:51:12.169Z,43.42
2023-03-07T17:56:13.678Z,42.86
2023-03-07T18:01:15.577Z,43.06
2023-03-07T18:06:17.049Z,43.79
2023-03-07T18:11:18.614Z,44.08
2023-03-07T18:16:20.139Z,44.52
2023-03-07T18:21:21.724Z,45.17
2023-03-07T18:26:23.262Z,45.62
2023-03-07T18:31:26.577Z,45.26
2023-03-07T18:36:28.261Z,45.33
2023-03-07T18:41:29.915Z,45.23
2023-03-07T18:46:31.508Z,45.90
2023-03-07T18:51:33.074Z,46.14
2023-03-07T18:56:34.641Z,46.68
2023-03-07T19:01:37.215Z,46.52
2023-03-07T19:06:42.000Z,46.40
2023-03-07T19:11:44.126Z,46.98
2023-03-07T19:16:45.925Z,46.40
2023-03-07T19:21:47.564Z,47.04
2023-03-07T19:26:49.359Z,47.13
2023-03-07T19:31:50.923Z,46.99
2023-03-07T19:36:52.458Z,47.47
2023-03-07T19:41:53.982Z,47.71
2023-03-07T19:46:55.543Z,48.04
2023-03-07T19:51:56.991Z,48.24
2023-03-07T19:56:58.463Z,47.86
2023-03-07T20:01:59.997Z,48.27
2023-03-07T20:07:01.480Z,48.79
2023-03-07T20:12:02.954Z,47.50
2023-03-07T20:17:04.402Z,48.20
2023-03-07T20:22:06.031Z,48.01
2023-03-07T20:27:07.525Z,48.40
2023-03-07T20:32:09.047Z,48.67
2023-03-07T20:37:10.888Z,48.40
2023-03-07T20:42:12.348Z,48.39
2023-03-07T20:47:13.800Z,48.85
2023-03-07T20:52:15.470Z,48.97
2023-03-07T20:57:16.925Z,48.98
2023-03-07T21:02:18.369Z,49.25
2023-03-07T21:07:19.910Z,49.70
2023-03-07T21:12:21.361Z,50.95
2023-03-07T21:17:22.877Z,50.51
2023-03-07T21:22:24.365Z,50.38
2023-03-07T21:27:27.537Z,50.87
2023-03-07T21:32:29.002Z,50.99
2023-03-07T21:37:30.480Z,50.92
2023-03-07T21:42:32.898Z,50.34
2023-03-07T21:47:34.390Z,50.24
2023-03-07T21:52:35.915Z,50.12
2023-03-07T21:57:37.396Z,50.03
2023-03-07T22:02:38.953Z,50.02
2023-03-07T22:07:40.425Z,49.95
2023-03-07T22:12:42.339Z,49.72
2023-03-07T22:17:43.812Z,49.65
2023-03-07T22:22:45.405Z,49.89
2023-03-07T22:27:46.861Z,49.90
2023-03-07T22:32:48.332Z,50.09
2023-03-07T22:37:49.813Z,49.81
2023-03-07T22:42:51.303Z,50.01
2023-03-07T22:47:52.876Z,50.14
2023-03-07T22:52:54.479Z,49.47
2023-03-07T22:57:55.947Z,49.55
2023-03-07T23:02:57.447Z,49.27
2023-03-07T23:08:00.203Z,50.04
2023-03-07T23:13:01.710Z,49.54
2023-03-07T23:18:03.453Z,49.87
2023-03-07T23:23:05.072Z,49.62
2023-03-07T23:28:06.566Z,49.91
2023-03-07T23:33:08.074Z,50.19
2023-03-07T23:38:12.676Z,50.20
2023-03-07T23:43:14.466Z,49.48
2023-03-07T23:48:15.915Z,50.02
2023-03-07T23:53:17.416Z,50.12
2023-03-07T23:58:18.978Z,49.96
